Kharga, Egypt
Current Conditions -  °F | °C
As of 5:00 AM on Sunday 23 Nov 2014 (Local Time) from HESG Reporting Station
Clear Clear  
Wind Chill: 54°   Ceiling: Unl
Heat Index: 54°   Visibility: 6mi
Dew Point: 45°   Wind: 3mph
Humidity: 72%   Direction: 270°W
Pressure: 30.03"   Gusts: NA
Location:  25.48°N, 30.59°E
Report Text: HESG 230300Z 27003KT CAVOK 12/07 Q1017 NOSIG
Loading
Personal Weather Stations






























Interactive Weather Map New forecast layout! Learn more

10-Day Weather Forecast

Advertisements
Track Severe Weather on mobile